createdAt,value
2022-12-08T00:00:06.305Z,91.10
2022-12-08T00:02:33.191Z,91.20
2022-12-08T00:05:18.603Z,91.20
2022-12-08T00:08:04.061Z,91.10
2022-12-08T00:13:17.662Z,90.90
2022-12-08T00:15:44.420Z,90.90
2022-12-08T00:18:11.183Z,91.10
2022-12-08T00:20:37.962Z,90.70
2022-12-08T00:23:04.818Z,90.90
2022-12-08T00:25:32.185Z,91.00
2022-12-08T00:27:58.950Z,91.00
2022-12-08T00:30:25.761Z,91.20
2022-12-08T00:32:52.497Z,91.10
2022-12-08T00:35:19.256Z,91.10
2022-12-08T00:37:46.066Z,91.10
2022-12-08T00:40:12.817Z,91.00
2022-12-08T00:42:39.543Z,91.00
2022-12-08T00:45:06.797Z,90.90
2022-12-08T00:47:33.610Z,90.90
2022-12-08T00:50:00.433Z,91.00
2022-12-08T00:52:27.315Z,91.10
2022-12-08T00:54:54.031Z,91.00
2022-12-08T00:57:20.792Z,90.90
2022-12-08T00:59:47.558Z,91.00
2022-12-08T01:02:14.661Z,91.10
2022-12-08T01:04:41.844Z,91.20
2022-12-08T01:07:08.615Z,91.20
2022-12-08T01:09:35.510Z,91.30
2022-12-08T01:12:02.258Z,91.20
2022-12-08T01:14:29.079Z,90.90
2022-12-08T01:16:55.928Z,90.90
2022-12-08T01:19:22.752Z,90.70
2022-12-08T01:21:49.719Z,90.90
2022-12-08T01:24:18.137Z,91.00
2022-12-08T01:26:45.249Z,91.00
2022-12-08T01:29:12.208Z,91.10
2022-12-08T01:31:39.678Z,91.00
2022-12-08T01:34:07.086Z,90.80
2022-12-08T01:36:37.193Z,90.90
2022-12-08T01:39:06.060Z,90.90
2022-12-08T01:41:34.000Z,90.70
2022-12-08T01:44:23.560Z,90.80
2022-12-08T01:46:51.772Z,91.00
2022-12-08T01:49:18.499Z,91.00
2022-12-08T01:52:03.195Z,90.90
2022-12-08T01:54:33.289Z,90.90
2022-12-08T01:57:06.500Z,91.10
2022-12-08T01:59:34.172Z,91.20
2022-12-08T02:02:01.060Z,91.20
2022-12-08T02:04:27.888Z,91.10
2022-12-08T02:06:54.797Z,91.00
2022-12-08T02:09:21.601Z,90.90
2022-12-08T02:11:49.238Z,91.00
2022-12-08T02:14:15.973Z,91.10
2022-12-08T02:17:05.537Z,91.10
2022-12-08T02:19:38.132Z,91.10
2022-12-08T02:22:04.859Z,91.20
2022-12-08T02:24:38.255Z,91.10
2022-12-08T02:27:27.681Z,91.10
2022-12-08T02:30:00.502Z,91.10
2022-12-08T02:32:46.936Z,91.20
2022-12-08T02:35:20.637Z,91.40
2022-12-08T02:37:50.158Z,91.10
2022-12-08T02:40:23.564Z,90.90
2022-12-08T02:43:10.564Z,91.10
2022-12-08T02:45:44.115Z,91.10
2022-12-08T02:48:10.977Z,91.20
2022-12-08T02:50:37.725Z,91.30
2022-12-08T02:55:42.959Z,91.20
2022-12-08T02:58:12.651Z,91.10
2022-12-08T03:00:58.113Z,91.00
2022-12-08T03:03:29.378Z,91.10
2022-12-08T03:06:01.220Z,91.10
2022-12-08T03:08:33.002Z,91.10
2022-12-08T03:11:14.658Z,91.00
2022-12-08T03:13:45.857Z,91.00
2022-12-08T03:16:15.050Z,91.10
2022-12-08T03:18:45.149Z,91.10
2022-12-08T03:21:14.021Z,91.10
2022-12-08T03:23:42.217Z,91.10
2022-12-08T03:26:12.066Z,91.10
2022-12-08T03:28:39.122Z,91.20
2022-12-08T03:31:07.239Z,91.20
2022-12-08T03:33:37.571Z,91.00
2022-12-08T03:36:06.232Z,91.00
2022-12-08T03:38:39.991Z,91.10
2022-12-08T03:41:18.818Z,91.00
2022-12-08T03:43:46.526Z,91.10
2022-12-08T03:46:13.812Z,91.10
2022-12-08T03:48:40.835Z,91.10
2022-12-08T03:51:07.973Z,91.10
2022-12-08T03:53:34.785Z,91.10
2022-12-08T03:56:03.614Z,91.10
2022-12-08T03:58:35.828Z,91.10
2022-12-08T04:01:04.081Z,91.20
2022-12-08T04:03:30.888Z,91.20
2022-12-08T04:05:57.686Z,91.10
2022-12-08T04:08:35.325Z,91.10
2022-12-08T04:11:02.389Z,90.90
2022-12-08T04:13:29.413Z,90.90
2022-12-08T04:15:56.282Z,90.90
2022-12-08T04:18:23.136Z,91.00
2022-12-08T04:20:49.893Z,90.90
2022-12-08T04:23:16.762Z,90.90
2022-12-08T04:25:43.817Z,91.00
2022-12-08T04:28:10.671Z,90.90
2022-12-08T04:30:37.563Z,91.00
2022-12-08T04:33:04.521Z,90.90
2022-12-08T04:35:31.293Z,91.00
2022-12-08T04:37:58.175Z,91.00
2022-12-08T04:40:24.878Z,91.00
2022-12-08T04:42:51.645Z,91.00
2022-12-08T04:45:18.510Z,90.90
2022-12-08T04:47:45.770Z,90.90
2022-12-08T04:50:13.241Z,91.00
2022-12-08T04:52:40.065Z,90.90
2022-12-08T04:55:07.382Z,91.00
2022-12-08T04:57:34.168Z,90.90
2022-12-08T05:00:01.045Z,90.80
2022-12-08T05:02:28.003Z,90.70
2022-12-08T05:04:54.783Z,90.60
2022-12-08T05:07:21.836Z,90.80
2022-12-08T05:09:48.596Z,90.80
2022-12-08T05:12:15.353Z,90.70
2022-12-08T05:14:42.122Z,90.80
2022-12-08T05:17:09.874Z,90.70
2022-12-08T05:19:36.855Z,90.70
2022-12-08T05:22:03.663Z,90.90
2022-12-08T05:24:30.407Z,90.90
2022-12-08T05:26:57.275Z,91.00
2022-12-08T05:29:24.041Z,91.00
2022-12-08T05:31:50.839Z,90.90
2022-12-08T05:34:17.647Z,91.00
2022-12-08T05:36:44.532Z,91.00
2022-12-08T05:39:14.803Z,91.00
2022-12-08T05:41:41.738Z,91.00
2022-12-08T05:44:08.720Z,90.90
2022-12-08T05:46:35.983Z,90.80
2022-12-08T05:49:03.379Z,90.80
2022-12-08T05:51:30.392Z,90.90
2022-12-08T05:53:57.180Z,91.00
2022-12-08T05:56:24.014Z,90.80
2022-12-08T05:58:51.210Z,90.90
2022-12-08T06:01:23.732Z,91.00
2022-12-08T06:03:50.771Z,91.00
2022-12-08T06:06:17.811Z,91.10
2022-12-08T06:08:44.553Z,91.10
2022-12-08T06:11:17.260Z,91.00
2022-12-08T06:13:44.029Z,90.90
2022-12-08T06:16:10.874Z,91.00
2022-12-08T06:18:48.835Z,90.90
2022-12-08T06:21:29.132Z,90.90
2022-12-08T06:23:56.178Z,90.80
2022-12-08T06:26:23.280Z,90.90
2022-12-08T06:28:50.294Z,90.90
2022-12-08T06:31:21.525Z,91.00
2022-12-08T06:33:48.601Z,91.00
2022-12-08T06:36:16.497Z,90.90
2022-12-08T06:38:44.045Z,90.80
2022-12-08T06:41:11.395Z,90.80
2022-12-08T06:43:38.410Z,90.90
2022-12-08T06:46:08.452Z,90.90
2022-12-08T06:48:35.328Z,90.90
2022-12-08T06:51:22.200Z,90.80
2022-12-08T06:53:49.042Z,90.80
2022-12-08T06:56:16.250Z,90.80
2022-12-08T06:58:46.053Z,90.80
2022-12-08T07:01:15.795Z,90.80
2022-12-08T07:03:43.738Z,90.80
2022-12-08T07:06:14.780Z,90.90
2022-12-08T07:08:41.732Z,90.90
2022-12-08T07:11:09.266Z,90.80
2022-12-08T07:13:35.966Z,91.00
2022-12-08T07:16:05.196Z,91.10
2022-12-08T07:18:32.014Z,91.10
2022-12-08T07:21:02.569Z,91.10
2022-12-08T07:23:29.286Z,91.10
2022-12-08T07:25:56.143Z,91.10
2022-12-08T07:28:22.919Z,91.10
2022-12-08T07:30:49.763Z,91.10
2022-12-08T07:33:16.671Z,91.20
2022-12-08T07:35:49.011Z,91.00
2022-12-08T07:38:16.062Z,90.90
2022-12-08T07:40:42.834Z,90.80
2022-12-08T07:43:09.555Z,90.90
2022-12-08T07:45:36.322Z,90.80
2022-12-08T07:48:03.193Z,90.70
2022-12-08T07:50:29.902Z,90.90
2022-12-08T07:52:56.656Z,90.90
2022-12-08T07:55:23.465Z,90.80
2022-12-08T07:57:50.496Z,91.00
2022-12-08T08:00:17.848Z,91.10
2022-12-08T08:02:44.912Z,90.90
2022-12-08T08:05:12.502Z,90.90
2022-12-08T08:07:39.810Z,90.80
2022-12-08T08:10:07.439Z,90.70
2022-12-08T08:12:34.439Z,90.70
2022-12-08T08:15:01.498Z,90.60
2022-12-08T08:17:28.905Z,90.60
2022-12-08T08:19:55.878Z,90.70
2022-12-08T08:22:22.674Z,90.80
2022-12-08T08:24:49.688Z,91.00
2022-12-08T08:27:16.453Z,91.00
2022-12-08T08:29:43.200Z,90.90
2022-12-08T08:32:09.968Z,90.90
2022-12-08T08:34:36.755Z,90.90
2022-12-08T08:37:03.682Z,91.00
2022-12-08T08:39:32.037Z,90.90
2022-12-08T08:41:58.907Z,90.90
2022-12-08T08:44:25.675Z,90.70
2022-12-08T08:46:52.672Z,90.70
2022-12-08T08:49:20.121Z,90.60
2022-12-08T08:51:46.904Z,90.70
2022-12-08T08:54:13.750Z,90.90
2022-12-08T08:56:40.530Z,90.90
2022-12-08T08:59:07.470Z,91.00
2022-12-08T09:01:34.393Z,91.10
2022-12-08T09:04:01.675Z,91.00
2022-12-08T09:06:28.750Z,90.90
2022-12-08T09:08:55.803Z,91.20
2022-12-08T09:11:26.028Z,91.10
2022-12-08T09:13:53.508Z,91.10
2022-12-08T09:16:21.176Z,91.10
2022-12-08T09:18:49.549Z,91.20
2022-12-08T09:21:20.459Z,91.10
2022-12-08T09:23:47.238Z,91.20
2022-12-08T09:26:13.963Z,91.20
2022-12-08T09:28:46.211Z,91.10
2022-12-08T09:31:17.138Z,91.00
2022-12-08T09:33:43.994Z,91.00
2022-12-08T09:36:11.157Z,91.00
2022-12-08T09:38:38.386Z,90.90
2022-12-08T09:41:11.371Z,90.80
2022-12-08T09:43:38.151Z,90.80
2022-12-08T09:46:09.513Z,90.90
2022-12-08T09:48:39.250Z,90.90
2022-12-08T09:51:06.208Z,90.90
2022-12-08T09:53:51.589Z,90.80
2022-12-08T09:56:26.535Z,90.80
2022-12-08T09:58:58.448Z,90.80
2022-12-08T10:01:29.696Z,90.90
2022-12-08T10:03:56.923Z,90.90
2022-12-08T10:06:39.331Z,90.90
2022-12-08T10:09:12.822Z,91.10
2022-12-08T10:11:44.238Z,91.10
2022-12-08T10:14:21.419Z,91.10
2022-12-08T10:16:55.263Z,91.20
2022-12-08T10:19:23.593Z,91.30
2022-12-08T10:21:50.851Z,91.10
2022-12-08T10:24:32.470Z,91.10
2022-12-08T10:26:59.402Z,91.10
2022-12-08T10:29:26.192Z,91.10
2022-12-08T10:31:52.965Z,91.10
2022-12-08T10:34:23.210Z,91.00
2022-12-08T10:36:54.010Z,91.10
2022-12-08T10:39:29.062Z,91.00
2022-12-08T10:42:01.056Z,91.20
2022-12-08T10:44:27.804Z,91.20
2022-12-08T10:46:54.645Z,91.30
2022-12-08T10:49:26.669Z,91.20
2022-12-08T10:51:53.437Z,91.30
2022-12-08T10:54:42.686Z,91.30
2022-12-08T10:57:19.995Z,91.30
2022-12-08T10:59:47.006Z,91.20
2022-12-08T11:02:19.072Z,91.30
2022-12-08T11:04:46.881Z,91.30
2022-12-08T11:07:20.813Z,91.30
2022-12-08T11:09:50.819Z,91.40
2022-12-08T11:12:21.151Z,91.40
2022-12-08T11:14:49.659Z,91.40
2022-12-08T11:17:22.461Z,91.10
2022-12-08T11:19:55.106Z,91.10
2022-12-08T11:22:28.015Z,91.10
2022-12-08T11:25:17.544Z,91.10
2022-12-08T11:27:45.787Z,91.20
2022-12-08T11:30:15.234Z,91.10
2022-12-08T11:32:43.269Z,91.10
2022-12-08T11:35:14.185Z,91.10
2022-12-08T11:37:41.713Z,91.10
2022-12-08T11:40:15.390Z,91.10
2022-12-08T11:42:55.202Z,91.10
2022-12-08T11:45:26.306Z,91.10
2022-12-08T11:48:05.660Z,91.00
2022-12-08T11:50:52.979Z,91.00
2022-12-08T11:53:42.026Z,91.00
2022-12-08T11:56:16.661Z,91.10
2022-12-08T11:58:49.713Z,91.10
2022-12-08T12:01:21.576Z,91.00
2022-12-08T12:03:52.519Z,90.80
2022-12-08T12:06:57.283Z,90.90
2022-12-08T12:09:32.950Z,90.90
2022-12-08T12:12:16.069Z,90.80
2022-12-08T12:15:01.346Z,90.60
2022-12-08T12:17:44.020Z,90.60
2022-12-08T12:20:16.926Z,90.60
2022-12-08T12:22:45.170Z,90.80
2022-12-08T12:25:23.599Z,90.80
2022-12-08T12:27:57.076Z,90.90
2022-12-08T12:30:28.365Z,90.90
2022-12-08T12:32:57.226Z,90.80
2022-12-08T12:35:36.862Z,90.70
2022-12-08T12:38:42.664Z,90.70
2022-12-08T12:41:10.375Z,90.60
2022-12-08T12:43:38.259Z,90.60
2022-12-08T12:46:23.266Z,90.70
2022-12-08T12:48:50.977Z,90.80
2022-12-08T12:51:50.299Z,90.90
2022-12-08T12:54:23.252Z,90.80
2022-12-08T12:56:54.756Z,90.80
2022-12-08T12:59:34.187Z,90.90
2022-12-08T13:02:03.006Z,91.00
2022-12-08T13:04:35.117Z,91.00
2022-12-08T13:07:02.441Z,90.90
2022-12-08T13:09:31.800Z,90.80
2022-12-08T13:12:00.387Z,90.80
2022-12-08T13:14:28.998Z,90.80
2022-12-08T13:16:57.496Z,90.70
2022-12-08T13:19:25.405Z,90.70
2022-12-08T13:21:52.341Z,90.90
2022-12-08T13:24:24.860Z,90.80
2022-12-08T13:27:03.731Z,90.80
2022-12-08T13:29:31.547Z,90.80
2022-12-08T13:32:18.757Z,90.70
2022-12-08T13:34:51.557Z,90.80
2022-12-08T13:37:25.722Z,90.80
2022-12-08T13:39:52.566Z,90.90
2022-12-08T13:42:21.867Z,91.00
2022-12-08T13:48:06.297Z,91.10
2022-12-08T13:54:35.500Z,90.90
2022-12-08T13:59:07.084Z,91.10
2022-12-08T14:01:36.303Z,91.00
2022-12-08T14:04:34.055Z,91.30
2022-12-08T14:06:51.683Z,90.90
2022-12-08T14:09:22.552Z,90.80
2022-12-08T14:11:58.443Z,90.80
2022-12-08T14:15:01.232Z,90.80
2022-12-08T14:17:21.293Z,90.80
2022-12-08T14:19:57.109Z,90.70
2022-12-08T14:22:24.437Z,90.80
2022-12-08T14:24:53.198Z,90.70
2022-12-08T14:27:22.240Z,90.90
2022-12-08T14:29:54.323Z,90.90
2022-12-08T14:32:26.034Z,90.80
2022-12-08T14:34:57.699Z,91.00
2022-12-08T14:37:26.176Z,90.90
2022-12-08T14:39:54.171Z,90.90
2022-12-08T14:42:22.636Z,90.90
2022-12-08T14:44:55.285Z,88.50
2022-12-08T14:47:22.048Z,90.50
2022-12-08T14:49:48.953Z,89.60
2022-12-08T14:52:15.772Z,89.80
2022-12-08T14:54:43.522Z,89.60
2022-12-08T14:57:12.278Z,89.80
2022-12-08T14:59:39.482Z,89.80
2022-12-08T15:02:27.391Z,89.70
2022-12-08T15:05:01.854Z,89.60
2022-12-08T15:07:30.357Z,88.80
2022-12-08T15:10:30.933Z,88.30
2022-12-08T15:13:02.298Z,87.80
2022-12-08T15:15:29.977Z,88.00
2022-12-08T15:18:12.648Z,88.20
2022-12-08T15:20:39.756Z,88.30
2022-12-08T15:23:06.919Z,88.50
2022-12-08T15:25:33.932Z,88.80
2022-12-08T15:28:02.556Z,88.70
2022-12-08T15:30:29.884Z,88.80
2022-12-08T15:32:57.064Z,88.90
2022-12-08T15:35:24.011Z,89.20
2022-12-08T15:37:50.817Z,89.50
2022-12-08T15:40:19.280Z,89.20
2022-12-08T15:42:46.122Z,89.50
2022-12-08T15:45:16.113Z,89.90
2022-12-08T15:47:43.781Z,90.00
2022-12-08T15:50:17.858Z,90.10
2022-12-08T15:52:44.777Z,90.10
2022-12-08T15:55:18.574Z,90.00
2022-12-08T16:00:53.020Z,90.10
2022-12-08T16:04:08.996Z,90.50
2022-12-08T16:06:57.628Z,90.10
2022-12-08T16:09:11.209Z,90.20
2022-12-08T16:12:07.150Z,90.30
2022-12-08T16:17:22.804Z,90.30
2022-12-08T16:19:49.617Z,90.20
2022-12-08T16:25:18.767Z,90.30
2022-12-08T16:30:34.833Z,90.20
2022-12-08T16:33:01.694Z,90.20
2022-12-08T16:35:28.705Z,90.30
2022-12-08T16:37:55.605Z,90.30
2022-12-08T16:40:22.353Z,90.40
2022-12-08T16:42:50.378Z,90.20
2022-12-08T16:45:17.271Z,90.20
2022-12-08T16:47:51.207Z,90.30
2022-12-08T16:50:18.024Z,90.40
2022-12-08T16:52:45.564Z,90.10
2022-12-08T16:55:16.042Z,90.10
2022-12-08T16:57:43.155Z,89.60
2022-12-08T17:00:11.697Z,89.30
2022-12-08T17:02:38.493Z,89.10
2022-12-08T17:05:05.706Z,89.10
2022-12-08T17:07:33.668Z,89.10
2022-12-08T17:10:02.341Z,89.20
2022-12-08T17:12:29.344Z,89.50
2022-12-08T17:14:56.052Z,90.00
2022-12-08T17:17:22.843Z,90.10
2022-12-08T17:19:49.618Z,90.00
2022-12-08T17:22:16.591Z,90.10
2022-12-08T17:24:43.319Z,90.10
2022-12-08T17:27:10.092Z,90.10
2022-12-08T17:29:36.942Z,90.20
2022-12-08T17:32:04.140Z,90.40
2022-12-08T17:34:31.098Z,90.50
2022-12-08T17:36:57.872Z,90.90
2022-12-08T17:39:25.288Z,91.30
2022-12-08T17:41:52.178Z,91.60
2022-12-08T17:44:19.280Z,92.00
2022-12-08T17:46:52.107Z,91.40
2022-12-08T17:49:23.851Z,91.00
2022-12-08T17:51:51.833Z,90.60
2022-12-08T17:54:19.863Z,90.30
2022-12-08T17:56:46.995Z,90.10
2022-12-08T17:59:14.183Z,90.10
2022-12-08T18:01:41.403Z,90.00
2022-12-08T18:04:09.171Z,90.00
2022-12-08T18:06:37.179Z,90.00
2022-12-08T18:09:04.808Z,90.10
2022-12-08T18:11:31.625Z,90.10
2022-12-08T18:13:58.413Z,90.00
2022-12-08T18:16:26.452Z,90.10
2022-12-08T18:18:53.831Z,90.10
2022-12-08T18:21:23.514Z,90.20
2022-12-08T18:23:50.770Z,90.20
2022-12-08T18:26:17.794Z,90.30
2022-12-08T18:28:45.101Z,90.30
2022-12-08T18:31:13.881Z,90.40
2022-12-08T18:33:41.918Z,90.30
2022-12-08T18:36:23.008Z,90.30
2022-12-08T18:38:50.089Z,90.50
2022-12-08T18:41:18.229Z,90.50
2022-12-08T18:43:45.080Z,90.50
2022-12-08T18:46:12.957Z,90.40
2022-12-08T18:48:41.278Z,90.40
2022-12-08T18:51:11.933Z,90.40
2022-12-08T18:53:39.897Z,90.50
2022-12-08T18:56:07.382Z,90.40
2022-12-08T18:58:34.098Z,90.40
2022-12-08T19:01:01.040Z,90.40
2022-12-08T19:03:27.840Z,90.50
2022-12-08T19:06:04.867Z,90.60
2022-12-08T19:08:31.913Z,90.50
2022-12-08T19:10:59.002Z,90.40
2022-12-08T19:13:27.440Z,90.40
2022-12-08T19:15:54.747Z,90.50
2022-12-08T19:18:21.626Z,90.50
2022-12-08T19:20:48.483Z,90.50
2022-12-08T19:23:15.527Z,90.80
2022-12-08T19:25:42.516Z,90.50
2022-12-08T19:28:09.408Z,90.50
2022-12-08T19:30:36.216Z,90.40
2022-12-08T19:33:02.998Z,90.50
2022-12-08T19:35:29.811Z,90.40
2022-12-08T19:37:56.536Z,90.50
2022-12-08T19:40:41.846Z,90.40
2022-12-08T19:43:34.881Z,90.40
2022-12-08T19:46:02.150Z,90.50
2022-12-08T19:48:29.653Z,90.50
2022-12-08T19:50:56.698Z,90.40
2022-12-08T19:53:24.756Z,90.60
2022-12-08T19:55:51.769Z,90.60
2022-12-08T19:58:19.486Z,90.60
2022-12-08T20:00:46.694Z,90.60
2022-12-08T20:03:16.904Z,90.40
2022-12-08T20:05:44.258Z,90.60
2022-12-08T20:08:11.217Z,90.40
2022-12-08T20:10:39.372Z,90.40
2022-12-08T20:13:25.115Z,90.60
2022-12-08T20:15:52.364Z,90.70
2022-12-08T20:18:19.208Z,90.70
2022-12-08T20:20:46.713Z,90.30
2022-12-08T20:23:14.213Z,90.50
2022-12-08T20:25:41.776Z,90.40
2022-12-08T20:28:08.657Z,90.40
2022-12-08T20:30:37.577Z,90.60
2022-12-08T20:33:04.422Z,90.90
2022-12-08T20:35:31.395Z,91.30
2022-12-08T20:37:58.251Z,91.70
2022-12-08T20:40:25.086Z,91.90
2022-12-08T20:42:52.603Z,92.00
2022-12-08T20:45:19.509Z,92.10
2022-12-08T20:47:46.731Z,92.30
2022-12-08T20:50:14.149Z,92.50
2022-12-08T20:52:41.787Z,92.60
2022-12-08T20:55:09.353Z,92.60
2022-12-08T20:57:37.129Z,92.70
2022-12-08T21:00:05.069Z,92.80
2022-12-08T21:02:32.529Z,92.20
2022-12-08T21:04:59.669Z,91.60
2022-12-08T21:07:26.629Z,91.40
2022-12-08T21:09:53.907Z,91.30
2022-12-08T21:12:20.998Z,91.30
2022-12-08T21:14:48.023Z,91.20
2022-12-08T21:17:15.057Z,91.10
2022-12-08T21:19:42.169Z,91.20
2022-12-08T21:22:09.565Z,91.40
2022-12-08T21:24:37.557Z,91.80
2022-12-08T21:27:04.863Z,92.10
2022-12-08T21:29:31.610Z,92.30
2022-12-08T21:32:01.265Z,92.50
2022-12-08T21:34:34.635Z,92.60
2022-12-08T21:37:02.466Z,92.80
2022-12-08T21:39:29.516Z,92.90
2022-12-08T21:42:14.944Z,92.90
2022-12-08T21:44:41.745Z,93.00
2022-12-08T21:47:08.595Z,93.30
2022-12-08T21:49:35.661Z,92.70
2022-12-08T21:52:02.679Z,92.00
2022-12-08T21:54:29.576Z,91.70
2022-12-08T21:56:56.509Z,91.50
2022-12-08T21:59:23.602Z,91.40
2022-12-08T22:01:50.540Z,91.40
2022-12-08T22:04:18.946Z,91.20
2022-12-08T22:06:46.061Z,91.20
2022-12-08T22:09:15.308Z,91.40
2022-12-08T22:11:43.252Z,91.90
2022-12-08T22:14:14.367Z,92.20
2022-12-08T22:16:42.433Z,92.30
2022-12-08T22:19:09.540Z,92.60
2022-12-08T22:21:38.154Z,92.70
2022-12-08T22:24:05.335Z,92.90
2022-12-08T22:26:32.245Z,93.00
2022-12-08T22:28:59.205Z,93.20
2022-12-08T22:31:26.304Z,92.80
2022-12-08T22:33:53.548Z,92.40
2022-12-08T22:36:24.496Z,91.90
2022-12-08T22:38:52.381Z,91.60
2022-12-08T22:41:19.531Z,91.50
2022-12-08T22:43:47.377Z,91.50
2022-12-08T22:46:21.493Z,91.50
2022-12-08T22:48:48.712Z,91.40
2022-12-08T22:51:15.417Z,91.50
2022-12-08T22:53:42.396Z,91.70
2022-12-08T22:56:10.491Z,91.90
2022-12-08T22:58:38.231Z,92.60
2022-12-08T23:01:05.310Z,92.50
2022-12-08T23:03:32.554Z,92.90
2022-12-08T23:05:59.512Z,92.90
2022-12-08T23:08:26.870Z,92.90
2022-12-08T23:10:54.692Z,92.90
2022-12-08T23:13:21.905Z,93.10
2022-12-08T23:15:48.791Z,93.00
2022-12-08T23:18:16.724Z,92.50
2022-12-08T23:20:43.774Z,92.00
2022-12-08T23:23:10.617Z,91.70
2022-12-08T23:25:43.361Z,91.40
2022-12-08T23:28:10.698Z,91.30
2022-12-08T23:30:39.998Z,91.30
2022-12-08T23:33:06.935Z,91.50
2022-12-08T23:35:34.070Z,91.50
2022-12-08T23:38:00.877Z,91.50
2022-12-08T23:40:27.874Z,91.90
2022-12-08T23:42:54.949Z,92.30
2022-12-08T23:45:22.055Z,92.60
2022-12-08T23:47:49.018Z,92.80
2022-12-08T23:50:15.916Z,92.90
2022-12-08T23:52:42.712Z,92.90
2022-12-08T23:55:10.151Z,93.10
2022-12-08T23:57:37.192Z,93.20
